sensor_id;sensor_type;location;lat;lon;timestamp;P1;durP1;ratioP1;P2;durP2;ratioP2
80619;SDS011;69979;53.682;-2.690;2023-07-29T00:02:17;4;;;4;;
80619;SDS011;69979;53.682;-2.690;2023-07-29T00:04:42;4;;;4;;
80619;SDS011;69979;53.682;-2.690;2023-07-29T00:07:08;4;;;4;;
80619;SDS011;69979;53.682;-2.690;2023-07-29T00:09:33;3;;;3;;
80619;SDS011;69979;53.682;-2.690;2023-07-29T00:11:58;4;;;4;;
80619;SDS011;69979;53.682;-2.690;2023-07-29T00:14:24;4;;;4;;
80619;SDS011;69979;53.682;-2.690;2023-07-29T00:16:49;4;;;4;;
80619;SDS011;69979;53.682;-2.690;2023-07-29T00:19:15;2;;;2;;
80619;SDS011;69979;53.682;-2.690;2023-07-29T00:21:40;3;;;3;;
80619;SDS011;69979;53.682;-2.690;2023-07-29T00:24:05;4;;;4;;
80619;SDS011;69979;53.682;-2.690;2023-07-29T00:26:31;4;;;3;;
80619;SDS011;69979;53.682;-2.690;2023-07-29T00:28:56;4;;;4;;
80619;SDS011;69979;53.682;-2.690;2023-07-29T00:31:22;3;;;2;;
80619;SDS011;69979;53.682;-2.690;2023-07-29T00:33:47;3;;;3;;
80619;SDS011;69979;53.682;-2.690;2023-07-29T00:36:13;3;;;3;;
80619;SDS011;69979;53.682;-2.690;2023-07-29T00:38:38;2;;;2;;
80619;SDS011;69979;53.682;-2.690;2023-07-29T00:41:03;3;;;3;;
80619;SDS011;69979;53.682;-2.690;2023-07-29T00:43:29;2;;;2;;
80619;SDS011;69979;53.682;-2.690;2023-07-29T00:45:54;2;;;2;;
80619;SDS011;69979;53.682;-2.690;2023-07-29T00:48:20;3;;;3;;
80619;SDS011;69979;53.682;-2.690;2023-07-29T00:50:45;2;;;2;;
80619;SDS011;69979;53.682;-2.690;2023-07-29T00:53:10;2;;;2;;
80619;SDS011;69979;53.682;-2.690;2023-07-29T00:55:36;2;;;2;;
80619;SDS011;69979;53.682;-2.690;2023-07-29T00:58:01;1;;;1;;
80619;SDS011;69979;53.682;-2.690;2023-07-29T01:00:27;2;;;1;;
80619;SDS011;69979;53.682;-2.690;2023-07-29T01:02:52;2;;;2;;
80619;SDS011;69979;53.682;-2.690;2023-07-29T01:05:17;2;;;2;;
80619;SDS011;69979;53.682;-2.690;2023-07-29T01:07:44;0;;;0;;
80619;SDS011;69979;53.682;-2.690;2023-07-29T01:10:10;1;;;1;;
80619;SDS011;69979;53.682;-2.690;2023-07-29T01:12:36;2;;;2;;
80619;SDS011;69979;53.682;-2.690;2023-07-29T01:15:01;2;;;2;;
80619;SDS011;69979;53.682;-2.690;2023-07-29T01:17:25;2;;;2;;
80619;SDS011;69979;53.682;-2.690;2023-07-29T01:19:55;1;;;1;;
80619;SDS011;69979;53.682;-2.690;2023-07-29T01:22:15;1;;;1;;
80619;SDS011;69979;53.682;-2.690;2023-07-29T01:24:41;2;;;2;;
80619;SDS011;69979;53.682;-2.690;2023-07-29T01:27:06;2;;;2;;
80619;SDS011;69979;53.682;-2.690;2023-07-29T01:29:31;2;;;2;;
80619;SDS011;69979;53.682;-2.690;2023-07-29T01:31:58;1;;;1;;
80619;SDS011;69979;53.682;-2.690;2023-07-29T01:34:22;3;;;2;;
80619;SDS011;69979;53.682;-2.690;2023-07-29T01:36:47;2;;;2;;
80619;SDS011;69979;53.682;-2.690;2023-07-29T01:39:13;3;;;2;;
80619;SDS011;69979;53.682;-2.690;2023-07-29T01:41:39;1;;;1;;
80619;SDS011;69979;53.682;-2.690;2023-07-29T01:44:04;1;;;1;;
80619;SDS011;69979;53.682;-2.690;2023-07-29T01:46:29;0;;;0;;
80619;SDS011;69979;53.682;-2.690;2023-07-29T01:48:55;1;;;1;;
80619;SDS011;69979;53.682;-2.690;2023-07-29T01:51:20;1;;;1;;
80619;SDS011;69979;53.682;-2.690;2023-07-29T01:53:45;1;;;1;;
80619;SDS011;69979;53.682;-2.690;2023-07-29T01:56:11;2;;;2;;
80619;SDS011;69979;53.682;-2.690;2023-07-29T01:58:36;1;;;1;;
80619;SDS011;69979;53.682;-2.690;2023-07-29T02:01:01;1;;;1;;
80619;SDS011;69979;53.682;-2.690;2023-07-29T02:03:27;1;;;1;;
80619;SDS011;69979;53.682;-2.690;2023-07-29T02:05:52;1;;;0;;
80619;SDS011;69979;53.682;-2.690;2023-07-29T02:08:18;1;;;1;;
80619;SDS011;69979;53.682;-2.690;2023-07-29T02:10:43;2;;;2;;
80619;SDS011;69979;53.682;-2.690;2023-07-29T02:13:09;1;;;1;;
80619;SDS011;69979;53.682;-2.690;2023-07-29T02:15:34;2;;;2;;
80619;SDS011;69979;53.682;-2.690;2023-07-29T02:17:59;2;;;2;;
80619;SDS011;69979;53.682;-2.690;2023-07-29T02:20:24;2;;;2;;
80619;SDS011;69979;53.682;-2.690;2023-07-29T02:22:50;2;;;2;;
80619;SDS011;69979;53.682;-2.690;2023-07-29T02:25:15;2;;;1;;
80619;SDS011;69979;53.682;-2.690;2023-07-29T02:27:41;3;;;3;;
80619;SDS011;69979;53.682;-2.690;2023-07-29T02:30:07;3;;;2;;
80619;SDS011;69979;53.682;-2.690;2023-07-29T02:32:32;3;;;3;;
80619;SDS011;69979;53.682;-2.690;2023-07-29T02:34:57;1;;;0;;
80619;SDS011;69979;53.682;-2.690;2023-07-29T02:37:22;2;;;2;;
80619;SDS011;69979;53.682;-2.690;2023-07-29T02:39:48;2;;;1;;
80619;SDS011;69979;53.682;-2.690;2023-07-29T02:42:13;2;;;2;;
80619;SDS011;69979;53.682;-2.690;2023-07-29T02:44:38;2;;;2;;
80619;SDS011;69979;53.682;-2.690;2023-07-29T02:47:03;2;;;2;;
80619;SDS011;69979;53.682;-2.690;2023-07-29T02:49:29;1;;;1;;
80619;SDS011;69979;53.682;-2.690;2023-07-29T02:51:54;3;;;2;;
80619;SDS011;69979;53.682;-2.690;2023-07-29T02:54:20;2;;;2;;
80619;SDS011;69979;53.682;-2.690;2023-07-29T02:56:45;2;;;1;;
80619;SDS011;69979;53.682;-2.690;2023-07-29T02:59:11;3;;;3;;
80619;SDS011;69979;53.682;-2.690;2023-07-29T03:01:36;2;;;2;;
80619;SDS011;69979;53.682;-2.690;2023-07-29T03:04:02;2;;;2;;
80619;SDS011;69979;53.682;-2.690;2023-07-29T03:06:27;3;;;3;;
80619;SDS011;69979;53.682;-2.690;2023-07-29T03:08:53;3;;;3;;
80619;SDS011;69979;53.682;-2.690;2023-07-29T03:11:18;4;;;3;;
80619;SDS011;69979;53.682;-2.690;2023-07-29T03:13:43;3;;;3;;
80619;SDS011;69979;53.682;-2.690;2023-07-29T03:16:09;2;;;2;;
80619;SDS011;69979;53.682;-2.690;2023-07-29T03:18:35;2;;;2;;
80619;SDS011;69979;53.682;-2.690;2023-07-29T03:21:00;2;;;2;;
80619;SDS011;69979;53.682;-2.690;2023-07-29T03:23:25;3;;;3;;
80619;SDS011;69979;53.682;-2.690;2023-07-29T03:25:51;3;;;3;;
80619;SDS011;69979;53.682;-2.690;2023-07-29T03:28:16;6;;;5;;
80619;SDS011;69979;53.682;-2.690;2023-07-29T03:30:41;6;;;4;;
80619;SDS011;69979;53.682;-2.690;2023-07-29T03:33:07;3;;;3;;
80619;SDS011;69979;53.682;-2.690;2023-07-29T03:35:33;4;;;4;;
80619;SDS011;69979;53.682;-2.690;2023-07-29T03:37:58;4;;;4;;
80619;SDS011;69979;53.682;-2.690;2023-07-29T03:40:23;3;;;3;;
80619;SDS011;69979;53.682;-2.690;2023-07-29T03:42:49;4;;;3;;
80619;SDS011;69979;53.682;-2.690;2023-07-29T03:45:14;4;;;4;;
80619;SDS011;69979;53.682;-2.690;2023-07-29T03:47:40;5;;;5;;
80619;SDS011;69979;53.682;-2.690;2023-07-29T03:50:05;4;;;4;;
80619;SDS011;69979;53.682;-2.690;2023-07-29T03:52:30;5;;;5;;
80619;SDS011;69979;53.682;-2.690;2023-07-29T03:54:56;4;;;4;;
80619;SDS011;69979;53.682;-2.690;2023-07-29T03:57:21;4;;;4;;
80619;SDS011;69979;53.682;-2.690;2023-07-29T03:59:47;4;;;4;;
80619;SDS011;69979;53.682;-2.690;2023-07-29T04:02:12;4;;;4;;
80619;SDS011;69979;53.682;-2.690;2023-07-29T04:04:38;5;;;5;;
80619;SDS011;69979;53.682;-2.690;2023-07-29T04:07:05;3;;;3;;
80619;SDS011;69979;53.682;-2.690;2023-07-29T04:09:29;4;;;4;;
80619;SDS011;69979;53.682;-2.690;2023-07-29T04:11:54;6;;;6;;
80619;SDS011;69979;53.682;-2.690;2023-07-29T04:14:20;5;;;4;;
80619;SDS011;69979;53.682;-2.690;2023-07-29T04:16:45;4;;;4;;
80619;SDS011;69979;53.682;-2.690;2023-07-29T04:19:11;6;;;6;;
80619;SDS011;69979;53.682;-2.690;2023-07-29T04:21:36;5;;;4;;
80619;SDS011;69979;53.682;-2.690;2023-07-29T04:24:01;6;;;5;;
80619;SDS011;69979;53.682;-2.690;2023-07-29T04:26:27;3;;;3;;
80619;SDS011;69979;53.682;-2.690;2023-07-29T04:28:52;4;;;4;;
80619;SDS011;69979;53.682;-2.690;2023-07-29T04:31:18;3;;;3;;
80619;SDS011;69979;53.682;-2.690;2023-07-29T04:33:43;4;;;4;;
80619;SDS011;69979;53.682;-2.690;2023-07-29T04:36:08;4;;;4;;
80619;SDS011;69979;53.682;-2.690;2023-07-29T04:38:34;3;;;3;;
80619;SDS011;69979;53.682;-2.690;2023-07-29T04:40:59;4;;;2;;
80619;SDS011;69979;53.682;-2.690;2023-07-29T04:43:26;5;;;5;;
80619;SDS011;69979;53.682;-2.690;2023-07-29T04:45:50;5;;;4;;
80619;SDS011;69979;53.682;-2.690;2023-07-29T04:48:16;3;;;3;;
80619;SDS011;69979;53.682;-2.690;2023-07-29T04:50:41;4;;;3;;
80619;SDS011;69979;53.682;-2.690;2023-07-29T04:53:06;3;;;3;;
80619;SDS011;69979;53.682;-2.690;2023-07-29T04:55:31;6;;;5;;
80619;SDS011;69979;53.682;-2.690;2023-07-29T04:57:57;3;;;2;;
80619;SDS011;69979;53.682;-2.690;2023-07-29T05:00:22;2;;;2;;
80619;SDS011;69979;53.682;-2.690;2023-07-29T05:02:48;4;;;4;;
80619;SDS011;69979;53.682;-2.690;2023-07-29T05:05:13;7;;;5;;
80619;SDS011;69979;53.682;-2.690;2023-07-29T05:07:39;3;;;2;;
80619;SDS011;69979;53.682;-2.690;2023-07-29T05:10:05;3;;;3;;
80619;SDS011;69979;53.682;-2.690;2023-07-29T05:12:30;4;;;4;;
80619;SDS011;69979;53.682;-2.690;2023-07-29T05:14:55;4;;;3;;
80619;SDS011;69979;53.682;-2.690;2023-07-29T05:17:21;5;;;4;;
80619;SDS011;69979;53.682;-2.690;2023-07-29T05:19:46;3;;;3;;
80619;SDS011;69979;53.682;-2.690;2023-07-29T05:22:11;3;;;3;;
80619;SDS011;69979;53.682;-2.690;2023-07-29T05:24:37;4;;;4;;
80619;SDS011;69979;53.682;-2.690;2023-07-29T05:27:02;4;;;4;;
80619;SDS011;69979;53.682;-2.690;2023-07-29T05:29:28;4;;;4;;
80619;SDS011;69979;53.682;-2.690;2023-07-29T05:31:53;4;;;4;;
80619;SDS011;69979;53.682;-2.690;2023-07-29T05:34:18;4;;;4;;
80619;SDS011;69979;53.682;-2.690;2023-07-29T05:36:44;2;;;2;;
80619;SDS011;69979;53.682;-2.690;2023-07-29T05:39:09;4;;;4;;
80619;SDS011;69979;53.682;-2.690;2023-07-29T05:41:35;3;;;3;;
80619;SDS011;69979;53.682;-2.690;2023-07-29T05:44:00;3;;;3;;
80619;SDS011;69979;53.682;-2.690;2023-07-29T05:46:25;2;;;2;;
80619;SDS011;69979;53.682;-2.690;2023-07-29T05:48:51;4;;;3;;
80619;SDS011;69979;53.682;-2.690;2023-07-29T05:51:16;6;;;6;;
80619;SDS011;69979;53.682;-2.690;2023-07-29T05:53:42;4;;;4;;
80619;SDS011;69979;53.682;-2.690;2023-07-29T05:56:07;3;;;3;;
80619;SDS011;69979;53.682;-2.690;2023-07-29T05:58:33;3;;;3;;
80619;SDS011;69979;53.682;-2.690;2023-07-29T06:00:58;7;;;5;;
80619;SDS011;69979;53.682;-2.690;2023-07-29T06:03:23;6;;;6;;
80619;SDS011;69979;53.682;-2.690;2023-07-29T06:05:49;7;;;5;;
80619;SDS011;69979;53.682;-2.690;2023-07-29T06:08:14;6;;;5;;
80619;SDS011;69979;53.682;-2.690;2023-07-29T06:10:40;6;;;6;;
80619;SDS011;69979;53.682;-2.690;2023-07-29T06:13:05;10;;;9;;
80619;SDS011;69979;53.682;-2.690;2023-07-29T06:15:30;5;;;5;;
80619;SDS011;69979;53.682;-2.690;2023-07-29T06:17:55;6;;;5;;
80619;SDS011;69979;53.682;-2.690;2023-07-29T06:20:21;5;;;5;;
80619;SDS011;69979;53.682;-2.690;2023-07-29T06:22:46;6;;;5;;
80619;SDS011;69979;53.682;-2.690;2023-07-29T06:25:12;5;;;5;;
80619;SDS011;69979;53.682;-2.690;2023-07-29T06:27:37;5;;;4;;
80619;SDS011;69979;53.682;-2.690;2023-07-29T06:30:03;7;;;7;;
80619;SDS011;69979;53.682;-2.690;2023-07-29T06:32:28;5;;;5;;
80619;SDS011;69979;53.682;-2.690;2023-07-29T06:34:54;4;;;4;;
80619;SDS011;69979;53.682;-2.690;2023-07-29T06:37:19;7;;;5;;
80619;SDS011;69979;53.682;-2.690;2023-07-29T06:39:44;6;;;6;;
80619;SDS011;69979;53.682;-2.690;2023-07-29T06:42:10;5;;;5;;
80619;SDS011;69979;53.682;-2.690;2023-07-29T06:44:35;4;;;4;;
80619;SDS011;69979;53.682;-2.690;2023-07-29T06:47:00;7;;;6;;
80619;SDS011;69979;53.682;-2.690;2023-07-29T06:49:26;6;;;4;;
80619;SDS011;69979;53.682;-2.690;2023-07-29T06:51:51;4;;;4;;
80619;SDS011;69979;53.682;-2.690;2023-07-29T06:54:17;4;;;4;;
80619;SDS011;69979;53.682;-2.690;2023-07-29T06:56:42;4;;;3;;
80619;SDS011;69979;53.682;-2.690;2023-07-29T06:59:08;4;;;3;;
80619;SDS011;69979;53.682;-2.690;2023-07-29T07:01:33;4;;;4;;
80619;SDS011;69979;53.682;-2.690;2023-07-29T07:03:58;3;;;3;;
80619;SDS011;69979;53.682;-2.690;2023-07-29T07:06:24;5;;;5;;
80619;SDS011;69979;53.682;-2.690;2023-07-29T07:08:49;6;;;6;;
80619;SDS011;69979;53.682;-2.690;2023-07-29T07:11:14;4;;;4;;
80619;SDS011;69979;53.682;-2.690;2023-07-29T07:13:40;5;;;4;;
80619;SDS011;69979;53.682;-2.690;2023-07-29T07:16:05;4;;;4;;
80619;SDS011;69979;53.682;-2.690;2023-07-29T07:18:30;5;;;5;;
80619;SDS011;69979;53.682;-2.690;2023-07-29T07:20:55;6;;;5;;
80619;SDS011;69979;53.682;-2.690;2023-07-29T07:23:21;4;;;4;;
80619;SDS011;69979;53.682;-2.690;2023-07-29T07:25:46;6;;;6;;
80619;SDS011;69979;53.682;-2.690;2023-07-29T07:28:12;5;;;4;;
80619;SDS011;69979;53.682;-2.690;2023-07-29T07:30:39;4;;;3;;
80619;SDS011;69979;53.682;-2.690;2023-07-29T07:33:03;2;;;2;;
80619;SDS011;69979;53.682;-2.690;2023-07-29T07:35:28;5;;;5;;
80619;SDS011;69979;53.682;-2.690;2023-07-29T07:37:53;7;;;5;;
80619;SDS011;69979;53.682;-2.690;2023-07-29T07:40:19;4;;;3;;
80619;SDS011;69979;53.682;-2.690;2023-07-29T07:42:45;3;;;3;;
80619;SDS011;69979;53.682;-2.690;2023-07-29T07:45:10;5;;;4;;
80619;SDS011;69979;53.682;-2.690;2023-07-29T07:47:35;3;;;3;;
80619;SDS011;69979;53.682;-2.690;2023-07-29T07:50:01;5;;;4;;
80619;SDS011;69979;53.682;-2.690;2023-07-29T07:52:26;4;;;4;;
80619;SDS011;69979;53.682;-2.690;2023-07-29T07:54:52;5;;;5;;
80619;SDS011;69979;53.682;-2.690;2023-07-29T07:57:17;3;;;3;;
80619;SDS011;69979;53.682;-2.690;2023-07-29T07:59:43;3;;;3;;
80619;SDS011;69979;53.682;-2.690;2023-07-29T08:02:08;5;;;5;;
80619;SDS011;69979;53.682;-2.690;2023-07-29T08:04:33;4;;;4;;
80619;SDS011;69979;53.682;-2.690;2023-07-29T08:06:59;6;;;5;;
80619;SDS011;69979;53.682;-2.690;2023-07-29T08:09:24;5;;;5;;
80619;SDS011;69979;53.682;-2.690;2023-07-29T08:11:50;4;;;4;;
80619;SDS011;69979;53.682;-2.690;2023-07-29T08:14:15;6;;;6;;
80619;SDS011;69979;53.682;-2.690;2023-07-29T08:16:41;4;;;4;;
80619;SDS011;69979;53.682;-2.690;2023-07-29T08:19:06;3;;;3;;
80619;SDS011;69979;53.682;-2.690;2023-07-29T08:21:31;3;;;3;;
80619;SDS011;69979;53.682;-2.690;2023-07-29T08:23:57;3;;;3;;
80619;SDS011;69979;53.682;-2.690;2023-07-29T08:26:22;3;;;3;;
80619;SDS011;69979;53.682;-2.690;2023-07-29T08:28:48;2;;;2;;
80619;SDS011;69979;53.682;-2.690;2023-07-29T08:31:13;3;;;3;;
80619;SDS011;69979;53.682;-2.690;2023-07-29T08:33:39;5;;;5;;
80619;SDS011;69979;53.682;-2.690;2023-07-29T08:36:04;2;;;1;;
80619;SDS011;69979;53.682;-2.690;2023-07-29T08:38:29;4;;;4;;
80619;SDS011;69979;53.682;-2.690;2023-07-29T08:40:58;3;;;3;;
80619;SDS011;69979;53.682;-2.690;2023-07-29T08:43:20;5;;;4;;
80619;SDS011;69979;53.682;-2.690;2023-07-29T08:45:46;5;;;4;;
80619;SDS011;69979;53.682;-2.690;2023-07-29T08:48:11;3;;;3;;
80619;SDS011;69979;53.682;-2.690;2023-07-29T08:50:37;3;;;3;;
80619;SDS011;69979;53.682;-2.690;2023-07-29T08:53:02;5;;;4;;
80619;SDS011;69979;53.682;-2.690;2023-07-29T08:55:27;3;;;3;;
80619;SDS011;69979;53.682;-2.690;2023-07-29T08:57:53;3;;;3;;
80619;SDS011;69979;53.682;-2.690;2023-07-29T09:00:18;2;;;2;;
80619;SDS011;69979;53.682;-2.690;2023-07-29T09:02:43;4;;;4;;
80619;SDS011;69979;53.682;-2.690;2023-07-29T09:05:09;4;;;3;;
80619;SDS011;69979;53.682;-2.690;2023-07-29T09:07:34;2;;;2;;
80619;SDS011;69979;53.682;-2.690;2023-07-29T09:10:00;3;;;3;;
80619;SDS011;69979;53.682;-2.690;2023-07-29T09:12:25;4;;;4;;
80619;SDS011;69979;53.682;-2.690;2023-07-29T09:14:51;3;;;2;;
80619;SDS011;69979;53.682;-2.690;2023-07-29T09:17:16;3;;;2;;
80619;SDS011;69979;53.682;-2.690;2023-07-29T09:19:41;2;;;2;;
80619;SDS011;69979;53.682;-2.690;2023-07-29T09:22:10;2;;;2;;
80619;SDS011;69979;53.682;-2.690;2023-07-29T09:24:32;3;;;2;;
80619;SDS011;69979;53.682;-2.690;2023-07-29T09:26:58;1;;;1;;
80619;SDS011;69979;53.682;-2.690;2023-07-29T09:29:23;3;;;3;;
80619;SDS011;69979;53.682;-2.690;2023-07-29T09:31:49;2;;;2;;
80619;SDS011;69979;53.682;-2.690;2023-07-29T09:34:14;4;;;4;;
80619;SDS011;69979;53.682;-2.690;2023-07-29T09:36:39;2;;;2;;
80619;SDS011;69979;53.682;-2.690;2023-07-29T09:39:10;2;;;2;;
80619;SDS011;69979;53.682;-2.690;2023-07-29T09:41:30;3;;;3;;
80619;SDS011;69979;53.682;-2.690;2023-07-29T09:43:56;2;;;2;;
80619;SDS011;69979;53.682;-2.690;2023-07-29T09:46:22;2;;;2;;
80619;SDS011;69979;53.682;-2.690;2023-07-29T09:48:46;3;;;3;;
80619;SDS011;69979;53.682;-2.690;2023-07-29T09:51:12;4;;;3;;
80619;SDS011;69979;53.682;-2.690;2023-07-29T09:53:39;4;;;3;;
80619;SDS011;69979;53.682;-2.690;2023-07-29T09:56:03;2;;;2;;
80619;SDS011;69979;53.682;-2.690;2023-07-29T09:58:28;5;;;3;;
80619;SDS011;69979;53.682;-2.690;2023-07-29T10:00:53;3;;;2;;
80619;SDS011;69979;53.682;-2.690;2023-07-29T10:03:19;2;;;2;;
80619;SDS011;69979;53.682;-2.690;2023-07-29T10:05:44;3;;;3;;
80619;SDS011;69979;53.682;-2.690;2023-07-29T10:08:10;7;;;6;;
80619;SDS011;69979;53.682;-2.690;2023-07-29T10:10:35;2;;;2;;
80619;SDS011;69979;53.682;-2.690;2023-07-29T10:13:01;2;;;2;;
80619;SDS011;69979;53.682;-2.690;2023-07-29T10:15:26;2;;;2;;
80619;SDS011;69979;53.682;-2.690;2023-07-29T10:17:52;2;;;2;;
80619;SDS011;69979;53.682;-2.690;2023-07-29T10:20:17;2;;;2;;
80619;SDS011;69979;53.682;-2.690;2023-07-29T10:22:43;3;;;2;;
80619;SDS011;69979;53.682;-2.690;2023-07-29T10:25:09;3;;;2;;
80619;SDS011;69979;53.682;-2.690;2023-07-29T10:27:35;2;;;2;;
80619;SDS011;69979;53.682;-2.690;2023-07-29T10:29:59;2;;;1;;
80619;SDS011;69979;53.682;-2.690;2023-07-29T10:32:25;4;;;3;;
80619;SDS011;69979;53.682;-2.690;2023-07-29T10:34:49;2;;;2;;
80619;SDS011;69979;53.682;-2.690;2023-07-29T10:37:15;3;;;3;;
80619;SDS011;69979;53.682;-2.690;2023-07-29T10:39:40;1;;;1;;
80619;SDS011;69979;53.682;-2.690;2023-07-29T10:42:06;3;;;3;;
80619;SDS011;69979;53.682;-2.690;2023-07-29T10:46:56;2;;;2;;
80619;SDS011;69979;53.682;-2.690;2023-07-29T10:49:23;3;;;3;;
80619;SDS011;69979;53.682;-2.690;2023-07-29T10:51:47;4;;;2;;
80619;SDS011;69979;53.682;-2.690;2023-07-29T10:54:13;2;;;2;;
80619;SDS011;69979;53.682;-2.690;2023-07-29T10:56:40;2;;;1;;
80619;SDS011;69979;53.682;-2.690;2023-07-29T11:01:29;3;;;3;;
80619;SDS011;69979;53.682;-2.690;2023-07-29T11:06:20;2;;;1;;
80619;SDS011;69979;53.682;-2.690;2023-07-29T11:08:45;2;;;2;;
80619;SDS011;69979;53.682;-2.690;2023-07-29T11:11:12;1;;;1;;
80619;SDS011;69979;53.682;-2.690;2023-07-29T11:13:36;3;;;3;;
80619;SDS011;69979;53.682;-2.690;2023-07-29T11:16:01;3;;;2;;
80619;SDS011;69979;53.682;-2.690;2023-07-29T11:18:27;3;;;2;;
80619;SDS011;69979;53.682;-2.690;2023-07-29T11:20:53;2;;;2;;
80619;SDS011;69979;53.682;-2.690;2023-07-29T11:23:17;3;;;3;;
80619;SDS011;69979;53.682;-2.690;2023-07-29T11:25:42;2;;;2;;
80619;SDS011;69979;53.682;-2.690;2023-07-29T11:28:08;3;;;1;;
80619;SDS011;69979;53.682;-2.690;2023-07-29T11:30:33;3;;;3;;
80619;SDS011;69979;53.682;-2.690;2023-07-29T11:32:59;3;;;3;;
80619;SDS011;69979;53.682;-2.690;2023-07-29T11:35:24;3;;;2;;
80619;SDS011;69979;53.682;-2.690;2023-07-29T11:37:50;5;;;5;;
80619;SDS011;69979;53.682;-2.690;2023-07-29T11:40:15;3;;;2;;
80619;SDS011;69979;53.682;-2.690;2023-07-29T11:42:40;1;;;0;;
80619;SDS011;69979;53.682;-2.690;2023-07-29T11:45:05;3;;;2;;
80619;SDS011;69979;53.682;-2.690;2023-07-29T11:47:30;1;;;1;;
80619;SDS011;69979;53.682;-2.690;2023-07-29T11:49:58;3;;;3;;
80619;SDS011;69979;53.682;-2.690;2023-07-29T11:52:21;2;;;2;;
80619;SDS011;69979;53.682;-2.690;2023-07-29T11:54:48;2;;;1;;
80619;SDS011;69979;53.682;-2.690;2023-07-29T11:57:12;1;;;1;;
80619;SDS011;69979;53.682;-2.690;2023-07-29T11:59:37;1;;;1;;
80619;SDS011;69979;53.682;-2.690;2023-07-29T12:02:05;0;;;0;;
80619;SDS011;69979;53.682;-2.690;2023-07-29T12:04:28;2;;;1;;
80619;SDS011;69979;53.682;-2.690;2023-07-29T12:06:54;0;;;0;;
80619;SDS011;69979;53.682;-2.690;2023-07-29T12:09:19;1;;;1;;
80619;SDS011;69979;53.682;-2.690;2023-07-29T12:11:44;2;;;2;;
80619;SDS011;69979;53.682;-2.690;2023-07-29T12:14:10;1;;;1;;
80619;SDS011;69979;53.682;-2.690;2023-07-29T12:16:40;2;;;1;;
80619;SDS011;69979;53.682;-2.690;2023-07-29T12:19:00;4;;;3;;
80619;SDS011;69979;53.682;-2.690;2023-07-29T12:21:26;2;;;2;;
80619;SDS011;69979;53.682;-2.690;2023-07-29T12:23:51;1;;;1;;
80619;SDS011;69979;53.682;-2.690;2023-07-29T12:26:17;2;;;2;;
80619;SDS011;69979;53.682;-2.690;2023-07-29T12:28:45;1;;;1;;
80619;SDS011;69979;53.682;-2.690;2023-07-29T12:31:07;3;;;3;;
80619;SDS011;69979;53.682;-2.690;2023-07-29T12:33:33;1;;;0;;
80619;SDS011;69979;53.682;-2.690;2023-07-29T12:35:58;2;;;1;;
80619;SDS011;69979;53.682;-2.690;2023-07-29T12:38:25;2;;;2;;
80619;SDS011;69979;53.682;-2.690;2023-07-29T12:40:49;1;;;1;;
80619;SDS011;69979;53.682;-2.690;2023-07-29T12:45:40;1;;;1;;
80619;SDS011;69979;53.682;-2.690;2023-07-29T12:48:05;2;;;2;;
80619;SDS011;69979;53.682;-2.690;2023-07-29T12:50:30;2;;;1;;
80619;SDS011;69979;53.682;-2.690;2023-07-29T12:52:56;2;;;2;;
80619;SDS011;69979;53.682;-2.690;2023-07-29T12:55:21;2;;;1;;
80619;SDS011;69979;53.682;-2.690;2023-07-29T12:57:47;2;;;1;;
80619;SDS011;69979;53.682;-2.690;2023-07-29T13:00:12;1;;;1;;
80619;SDS011;69979;53.682;-2.690;2023-07-29T13:02:37;2;;;2;;
80619;SDS011;69979;53.682;-2.690;2023-07-29T13:05:02;2;;;2;;
80619;SDS011;69979;53.682;-2.690;2023-07-29T13:07:28;0;;;0;;
80619;SDS011;69979;53.682;-2.690;2023-07-29T13:09:53;2;;;1;;
80619;SDS011;69979;53.682;-2.690;2023-07-29T13:12:18;2;;;2;;
80619;SDS011;69979;53.682;-2.690;2023-07-29T13:14:44;0;;;0;;
80619;SDS011;69979;53.682;-2.690;2023-07-29T13:17:09;1;;;0;;
80619;SDS011;69979;53.682;-2.690;2023-07-29T13:19:35;2;;;2;;
80619;SDS011;69979;53.682;-2.690;2023-07-29T13:22:00;2;;;2;;
80619;SDS011;69979;53.682;-2.690;2023-07-29T13:24:25;4;;;3;;
80619;SDS011;69979;53.682;-2.690;2023-07-29T13:26:50;0;;;0;;
80619;SDS011;69979;53.682;-2.690;2023-07-29T13:29:16;4;;;3;;
80619;SDS011;69979;53.682;-2.690;2023-07-29T13:31:41;3;;;0;;
80619;SDS011;69979;53.682;-2.690;2023-07-29T13:34:06;2;;;2;;
80619;SDS011;69979;53.682;-2.690;2023-07-29T13:36:32;1;;;1;;
80619;SDS011;69979;53.682;-2.690;2023-07-29T13:38:57;1;;;1;;
80619;SDS011;69979;53.682;-2.690;2023-07-29T13:41:23;3;;;3;;
80619;SDS011;69979;53.682;-2.690;2023-07-29T13:43:48;1;;;1;;
80619;SDS011;69979;53.682;-2.690;2023-07-29T13:46:13;3;;;2;;
80619;SDS011;69979;53.682;-2.690;2023-07-29T13:48:39;2;;;2;;
80619;SDS011;69979;53.682;-2.690;2023-07-29T13:51:04;2;;;1;;
80619;SDS011;69979;53.682;-2.690;2023-07-29T13:53:30;1;;;1;;
80619;SDS011;69979;53.682;-2.690;2023-07-29T13:55:55;1;;;1;;
80619;SDS011;69979;53.682;-2.690;2023-07-29T13:58:20;2;;;2;;
80619;SDS011;69979;53.682;-2.690;2023-07-29T14:00:46;1;;;1;;
80619;SDS011;69979;53.682;-2.690;2023-07-29T14:03:11;3;;;2;;
80619;SDS011;69979;53.682;-2.690;2023-07-29T14:05:36;1;;;1;;
80619;SDS011;69979;53.682;-2.690;2023-07-29T14:08:02;2;;;2;;
80619;SDS011;69979;53.682;-2.690;2023-07-29T14:10:27;4;;;3;;
80619;SDS011;69979;53.682;-2.690;2023-07-29T14:12:52;1;;;1;;
80619;SDS011;69979;53.682;-2.690;2023-07-29T14:15:18;1;;;1;;
80619;SDS011;69979;53.682;-2.690;2023-07-29T14:17:43;2;;;2;;
80619;SDS011;69979;53.682;-2.690;2023-07-29T14:20:09;2;;;2;;
80619;SDS011;69979;53.682;-2.690;2023-07-29T14:22:34;1;;;1;;
80619;SDS011;69979;53.682;-2.690;2023-07-29T14:24:59;1;;;1;;
80619;SDS011;69979;53.682;-2.690;2023-07-29T14:27:24;0;;;0;;
80619;SDS011;69979;53.682;-2.690;2023-07-29T14:29:50;0;;;0;;
80619;SDS011;69979;53.682;-2.690;2023-07-29T14:32:15;1;;;1;;
80619;SDS011;69979;53.682;-2.690;2023-07-29T14:34:40;1;;;1;;
80619;SDS011;69979;53.682;-2.690;2023-07-29T14:37:06;0;;;0;;
80619;SDS011;69979;53.682;-2.690;2023-07-29T14:39:31;1;;;1;;
80619;SDS011;69979;53.682;-2.690;2023-07-29T14:41:57;0;;;0;;
80619;SDS011;69979;53.682;-2.690;2023-07-29T14:44:22;1;;;0;;
80619;SDS011;69979;53.682;-2.690;2023-07-29T14:46:47;2;;;2;;
80619;SDS011;69979;53.682;-2.690;2023-07-29T14:49:12;2;;;2;;
80619;SDS011;69979;53.682;-2.690;2023-07-29T14:51:38;1;;;1;;
80619;SDS011;69979;53.682;-2.690;2023-07-29T14:54:03;1;;;1;;
80619;SDS011;69979;53.682;-2.690;2023-07-29T14:56:28;1;;;1;;
80619;SDS011;69979;53.682;-2.690;2023-07-29T14:58:54;1;;;1;;
80619;SDS011;69979;53.682;-2.690;2023-07-29T15:01:19;0;;;0;;
80619;SDS011;69979;53.682;-2.690;2023-07-29T15:03:44;2;;;2;;
80619;SDS011;69979;53.682;-2.690;2023-07-29T15:06:10;1;;;1;;
80619;SDS011;69979;53.682;-2.690;2023-07-29T15:08:35;3;;;3;;
80619;SDS011;69979;53.682;-2.690;2023-07-29T15:11:01;2;;;2;;
80619;SDS011;69979;53.682;-2.690;2023-07-29T15:13:26;1;;;1;;
80619;SDS011;69979;53.682;-2.690;2023-07-29T15:15:51;3;;;3;;
80619;SDS011;69979;53.682;-2.690;2023-07-29T15:18:17;1;;;1;;
80619;SDS011;69979;53.682;-2.690;2023-07-29T15:20:43;1;;;1;;
80619;SDS011;69979;53.682;-2.690;2023-07-29T15:23:08;1;;;1;;
80619;SDS011;69979;53.682;-2.690;2023-07-29T15:25:33;1;;;1;;
80619;SDS011;69979;53.682;-2.690;2023-07-29T15:27:58;2;;;2;;
80619;SDS011;69979;53.682;-2.690;2023-07-29T15:30:24;2;;;2;;
80619;SDS011;69979;53.682;-2.690;2023-07-29T15:32:49;2;;;2;;
80619;SDS011;69979;53.682;-2.690;2023-07-29T15:35:15;3;;;2;;
80619;SDS011;69979;53.682;-2.690;2023-07-29T15:37:40;1;;;1;;
80619;SDS011;69979;53.682;-2.690;2023-07-29T15:40:06;1;;;1;;
80619;SDS011;69979;53.682;-2.690;2023-07-29T15:42:31;2;;;1;;
80619;SDS011;69979;53.682;-2.690;2023-07-29T15:44:56;2;;;2;;
80619;SDS011;69979;53.682;-2.690;2023-07-29T15:47:21;2;;;2;;
80619;SDS011;69979;53.682;-2.690;2023-07-29T15:49:47;3;;;3;;
80619;SDS011;69979;53.682;-2.690;2023-07-29T15:52:12;2;;;2;;
80619;SDS011;69979;53.682;-2.690;2023-07-29T15:54:37;2;;;2;;
80619;SDS011;69979;53.682;-2.690;2023-07-29T15:57:03;1;;;1;;
80619;SDS011;69979;53.682;-2.690;2023-07-29T15:59:28;2;;;2;;